Main page
METAR-TAF:

METAR-TAF

Airports :

Oradea International Airport

Oradea, Romania

latitude: 47-03N, longitude: 021-56E, elevation: 135 m

Current weather observation

The report was made 16 minutes ago, at 21:30 UTC
Wind 11 kt from the Southwest
Temperature 8°C
Humidity 87%
Pressure 1007 hPa
Visibility 10 km or more

METAR: LROD 242130Z AUTO 23011KT 9999 FEW013/// BKN029/// OVC033/// 08/06 Q1007

Time: 00:46 (21:46 UTC)

Forecast

The report was made 4 hours and 46 minutes ago, at 17:00 UTC
Forecast valid from 24 at 18 UTC to 25 at 03 UTC
Wind 10 kt from the Southwest
Visibility 10 km or more
Broken clouds at a height of 3000 ft
Temporary
from 25 at 00 UTC to 25 at 03 UTC
Visibility: 3000 m
mist,

TAF: LROD 241700Z 2418/2503 22010KT 9999 BKN030 TEMPO 2500/2503 3000 BR

Weather observations and forecasts of more than 4000 airports (METAR and TAF reports).

The available stations are represented by yellow and red dots on the map.

Hover mouse over dot to see the name of the station.

Then click to see weather observations and forecasts.

To change the map : click on the green buttons with a black cross to zoom in, on the green button with a dash to zoom out, or on the green arrows for adjacent maps.


METAR-TAF: